Time;durP1;ratioP1;P1;durP2;ratioP2;P2;SDS_P1;SDS_P2;PMS_P1;PMS_P2;Temp;Humidity;BMP_temperature;BMP_pressure;BME280_temperature;BME280_humidity;BME280_pressure;Samples;Min_cycle;Max_cycle;Signal;HPM_P1;HPM_P2
2022/05/18 00:00:52;;;;;;;10.77;9.05;;;;;;;20.66;69.98;100853.53;5092052;28;20031;-80
2022/05/18 00:03:21;;;;;;;9.48;8.38;;;;;;;20.57;70.24;100826.81;5091983;28;20031;-81
2022/05/18 00:05:47;;;;;;;8.95;8.05;;;;;;;20.68;69.89;100844.72;5091997;28;20028;-80
2022/05/18 00:08:13;;;;;;;9.43;8.23;;;;;;;20.70;70.03;100850.94;5071310;28;20036;-80
2022/05/18 00:10:39;;;;;;;;;;;;;;;20.74;69.79;100847.44;5074213;28;20055;-80
2022/05/18 00:13:05;;;;;;;10.02;8.38;;;;;;;20.70;69.97;100847.34;5090863;28;19920;-81
2022/05/18 00:15:31;;;;;;;9.65;8.05;;;;;;;20.71;69.71;100851.81;5090794;28;20024;-81
2022/05/18 00:17:57;;;;;;;9.32;8.10;;;;;;;20.68;69.97;100851.75;5073675;28;20115;-80
2022/05/18 00:20:24;;;;;;;9.93;8.02;;;;;;;20.65;69.65;100841.13;5091925;28;20031;-80
2022/05/18 00:22:55;;;;;;;11.90;8.82;;;;;;;20.65;69.72;100842.00;5091856;28;20408;-80
2022/05/18 00:25:24;;;;;;;9.23;8.23;;;;;;;20.63;69.73;100832.25;5058745;28;20025;-80
2022/05/18 00:27:50;;;;;;;9.68;8.50;;;;;;;20.66;69.76;100837.59;5089259;28;20106;-80
2022/05/18 00:30:18;;;;;;;11.05;8.45;;;;;;;20.65;69.70;100831.38;5073833;28;20403;-80
2022/05/18 00:32:43;;;;;;;11.40;8.95;;;;;;;20.65;69.70;100833.16;5089466;28;20040;-80
2022/05/18 00:35:11;;;;;;;9.80;8.10;;;;;;;20.65;69.38;100842.00;5090467;28;20027;-80
2022/05/18 00:37:37;;;;;;;11.23;8.48;;;;;;;20.65;69.67;100830.50;5090618;28;20035;-81
2022/05/18 00:40:03;;;;;;;8.93;8.05;;;;;;;20.61;69.69;100826.91;5089397;28;20404;-81
2022/05/18 00:42:29;;;;;;;9.57;8.57;;;;;;;20.58;69.43;100828.66;5089473;28;20051;-80
2022/05/18 00:44:55;;;;;;;9.73;8.73;;;;;;;20.61;69.72;100844.59;5091795;28;20032;-80
2022/05/18 00:47:21;;;;;;;9.15;8.23;;;;;;;20.62;69.66;100833.13;5073234;28;20039;-80
2022/05/18 00:49:51;;;;;;;;;;;;;;;20.69;69.41;100841.16;5091567;28;20158;-80
2022/05/18 00:52:20;;;;;;;10.27;8.48;;;;;;;20.64;69.41;100840.22;5072047;28;20407;-80
2022/05/18 00:54:47;;;;;;;10.38;8.88;;;;;;;20.59;69.37;100839.25;5088585;28;20089;-80
2022/05/18 00:57:19;;;;;;;9.00;8.10;;;;;;;20.61;69.59;100848.13;5091468;28;20501;-80
2022/05/18 00:59:48;;;;;;;9.57;8.57;;;;;;;20.62;69.55;100855.22;5073480;28;20381;-80
2022/05/18 01:02:14;;;;;;;9.35;8.23;;;;;;;20.66;69.50;100869.44;5086391;28;20032;-81
2022/05/18 01:04:40;;;;;;;10.98;8.75;;;;;;;20.63;69.50;100875.56;5060794;28;20518;-81
2022/05/18 01:07:10;;;;;;;11.80;8.77;;;;;;;20.62;69.18;100891.50;5053321;28;20112;-81
2022/05/18 01:09:44;;;;;;;12.43;8.70;;;;;;;20.58;69.33;100887.00;5069868;28;20035;-80
2022/05/18 01:12:12;;;;;;;9.30;8.40;;;;;;;20.57;69.52;100861.31;5042997;28;20038;-81
2022/05/18 01:14:48;;;;;;;10.18;8.35;;;;;;;20.61;69.59;100866.69;5089260;28;20035;-81
2022/05/18 01:17:18;;;;;;;9.50;8.48;;;;;;;20.62;69.42;100887.06;5091248;28;20024;-80
2022/05/18 01:19:46;;;;;;;11.65;8.38;;;;;;;20.62;69.17;100872.94;5073789;28;20124;-80
2022/05/18 01:22:42;;;;;;;10.77;8.32;;;;;;;20.61;69.22;100874.66;5093029;28;20052;-80
2022/05/18 01:25:14;;;;;;;9.55;8.55;;;;;;;20.59;69.36;100870.22;5094861;28;20035;-80
2022/05/18 01:27:39;;;;;;;9.40;8.38;;;;;;;20.58;69.47;100877.28;5093216;28;20500;-80
2022/05/18 01:30:06;;;;;;;10.05;8.77;;;;;;;20.55;69.37;100874.53;5094035;28;20028;-81
2022/05/18 01:32:40;;;;;;;10.43;9.10;;;;;;;20.59;69.62;100886.13;5094375;28;20044;-80
2022/05/18 01:35:08;;;;;;;8.75;7.72;;;;;;;20.58;69.55;100879.06;5094852;28;20404;-81
2022/05/18 01:37:33;;;;;;;10.13;8.90;;;;;;;20.58;69.53;100889.66;5073726;28;20518;-80
2022/05/18 01:40:00;;;;;;;10.57;8.95;;;;;;;20.60;69.30;100898.53;5094301;28;20105;-81
2022/05/18 01:42:28;;;;;;;10.68;8.50;;;;;;;20.59;69.48;100900.28;5093985;28;20118;-81
2022/05/18 01:44:54;;;;;;;9.27;8.38;;;;;;;20.57;69.29;100907.28;5094353;28;20024;-81
2022/05/18 01:47:20;;;;;;;9.48;8.20;;;;;;;20.51;69.08;100894.84;5091186;28;20036;-81
2022/05/18 01:49:46;;;;;;;9.65;8.65;;;;;;;20.56;69.01;100892.25;5094109;28;20059;-80
2022/05/18 01:52:12;;;;;;;10.63;8.60;;;;;;;20.54;68.79;100880.72;5076331;28;20111;-80
2022/05/18 01:54:44;;;;;;;12.57;8.82;;;;;;;20.53;68.87;100877.19;5094198;28;20182;-81
2022/05/18 01:57:10;;;;;;;10.50;8.50;;;;;;;20.50;68.94;100871.81;5091387;28;20028;-80
2022/05/18 01:59:37;;;;;;;11.07;8.60;;;;;;;20.53;68.92;100873.63;5076518;28;20416;-81
2022/05/18 02:02:04;;;;;;;11.70;9.18;;;;;;;20.52;68.61;100861.25;5076173;28;20481;-80
2022/05/18 02:04:32;;;;;;;10.10;8.32;;;;;;;20.45;68.75;100847.00;5094112;28;20408;-80
2022/05/18 02:06:59;;;;;;;11.02;8.88;;;;;;;20.53;68.72;100861.28;5092057;28;20051;-81
2022/05/18 02:09:26;;;;;;;10.15;8.30;;;;;;;20.46;68.46;100846.13;5094071;28;20077;-80
2022/05/18 02:11:52;;;;;;;9.68;8.52;;;;;;;20.51;68.97;100867.41;5076005;28;20048;-81
2022/05/18 02:14:18;;;;;;;9.57;8.07;;;;;;;20.45;68.87;100851.41;5094050;28;20408;-81
2022/05/18 02:16:43;;;;;;;11.05;8.27;;;;;;;20.54;68.56;100865.69;5074555;28;20035;-81
2022/05/18 02:19:09;;;;;;;10.80;8.02;;;;;;;20.52;68.59;100853.28;5075677;28;20038;-80
2022/05/18 02:21:35;;;;;;;8.85;7.70;;;;;;;20.53;68.44;100869.22;5093954;28;20427;-81
2022/05/18 02:24:00;;;;;;;9.63;7.82;;;;;;;20.45;68.29;100841.69;5093849;28;20553;-81
2022/05/18 02:26:26;;;;;;;9.90;7.90;;;;;;;20.33;68.08;100829.13;5091712;28;20028;-80
2022/05/18 02:28:51;;;;;;;13.93;8.52;;;;;;;20.46;67.99;100831.97;5093477;28;20020;-81
2022/05/18 02:31:17;;;;;;;12.82;7.32;;;;;;;20.46;67.79;100837.28;5089973;28;20668;-81
2022/05/18 02:33:43;;;;;;;14.10;7.95;;;;;;;20.40;68.00;100840.72;5092495;28;20032;-81
2022/05/18 02:36:10;;;;;;;13.85;7.80;;;;;;;20.39;67.97;100846.03;5093559;28;20032;-81
2022/05/18 02:38:37;;;;;;;14.20;7.90;;;;;;;20.39;67.92;100857.50;5075691;28;20035;-81
2022/05/18 02:41:03;;;;;;;15.40;7.50;;;;;;;20.44;68.01;100862.88;5075515;28;21036;-81
2022/05/18 02:43:29;;;;;;;8.50;7.57;;;;;;;20.49;67.98;100870.06;5072695;28;20024;-81
2022/05/18 02:46:08;;;;;;;12.77;7.78;;;;;;;20.48;68.01;100865.59;5093348;28;20121;-80
2022/05/18 02:48:34;;;;;;;12.50;7.80;;;;;;;20.55;68.11;100877.19;5093192;28;20028;-81
2022/05/18 02:51:00;;;;;;;13.50;7.90;;;;;;;20.55;68.25;100877.19;5090913;28;20028;-81
2022/05/18 02:53:26;;;;;;;11.30;7.28;;;;;;;20.56;67.92;100889.59;5093146;28;20054;-81
2022/05/18 02:56:06;;;;;;;10.25;7.57;;;;;;;20.53;68.00;100878.91;5075494;28;20103;-81
2022/05/18 02:58:37;;;;;;;10.18;7.15;;;;;;;20.54;67.86;100886.03;5093466;28;20036;-81
2022/05/18 03:01:05;;;;;;;10.70;7.10;;;;;;;20.51;68.31;100878.94;5090592;28;20051;-80
2022/05/18 03:03:31;;;;;;;10.45;7.30;;;;;;;20.54;67.96;100871.00;5075232;28;20084;-81
2022/05/18 03:05:56;;;;;;;8.77;7.07;;;;;;;20.60;67.91;100872.00;5075300;28;20024;-81
2022/05/18 03:08:22;;;;;;;10.90;7.28;;;;;;;20.51;67.68;100859.44;5074980;28;20156;-81
2022/05/18 03:10:48;;;;;;;11.63;6.90;;;;;;;20.52;67.64;100861.25;5090689;28;20040;-81
2022/05/18 03:13:13;;;;;;;10.25;6.90;;;;;;;20.55;67.92;100863.91;5092979;28;20493;-80
2022/05/18 03:15:39;;;;;;;9.55;7.07;;;;;;;20.55;67.97;100861.28;5091970;28;20133;-81
2022/05/18 03:18:05;;;;;;;10.65;7.43;;;;;;;20.56;68.11;100867.50;5092817;28;20032;-80
2022/05/18 03:23:33;;;;;;;10.18;7.00;;;;;;;20.57;68.24;100859.53;5091412;28;20085;-81
2022/05/18 03:25:59;;;;;;;10.50;7.22;;;;;;;20.52;68.22;100840.91;5092600;28;20038;-80
2022/05/18 03:28:25;;;;;;;7.85;6.88;;;;;;;20.56;68.44;100864.84;5074437;28;20020;-81
2022/05/18 03:30:50;;;;;;;10.20;7.53;;;;;;;20.54;68.62;100860.38;5090350;28;20058;-81
2022/05/18 03:33:16;;;;;;;10.77;7.70;;;;;;;20.52;68.64;100869.19;5092581;28;20028;-80
2022/05/18 03:35:42;;;;;;;10.40;7.47;;;;;;;20.51;68.78;100875.34;5074319;28;20024;-81
2022/05/18 03:38:07;;;;;;;11.73;7.55;;;;;;;20.51;68.68;100860.34;5092005;28;20735;-81
2022/05/18 03:40:38;;;;;;;10.50;7.50;;;;;;;20.60;68.53;100858.75;5089418;28;20400;-81
2022/05/18 03:43:04;;;;;;;8.38;7.50;;;;;;;20.60;68.60;100851.66;5074274;28;20024;-80
2022/05/18 03:45:30;;;;;;;;;;;;;;;20.60;68.52;100848.13;5092650;28;20024;-81
2022/05/18 03:47:56;;;;;;;9.82;7.25;;;;;;;20.54;68.83;100848.88;5092191;28;19912;-81
2022/05/18 03:50:22;;;;;;;9.80;7.45;;;;;;;20.56;68.94;100857.75;5089326;28;20411;-80
2022/05/18 03:52:48;;;;;;;9.25;6.70;;;;;;;20.54;68.89;100896.66;5074017;28;20513;-80
2022/05/18 03:55:14;;;;;;;9.00;7.63;;;;;;;20.49;68.78;100885.97;5074107;28;20051;-80
2022/05/18 03:57:40;;;;;;;10.35;7.05;;;;;;;20.60;68.70;100851.66;5092003;28;20032;-80
2022/05/18 04:00:06;;;;;;;8.20;7.32;;;;;;;20.59;68.68;100846.31;5090066;28;20042;-80
2022/05/18 04:02:33;;;;;;;11.07;7.28;;;;;;;20.59;68.55;100856.94;5091966;28;20111;-80
2022/05/18 04:04:59;;;;;;;8.55;7.20;;;;;;;20.52;68.76;100847.97;5092088;28;20020;-80
2022/05/18 04:07:25;;;;;;;7.65;6.85;;;;;;;20.49;68.86;100862.09;5073916;28;20030;-80
2022/05/18 04:09:50;;;;;;;9.88;7.30;;;;;;;20.53;68.75;100865.66;5090579;28;20042;-81
2022/05/18 04:12:16;;;;;;;8.05;6.97;;;;;;;20.55;68.81;100869.22;5058907;28;20646;-82
2022/05/18 04:14:41;;;;;;;9.40;6.95;;;;;;;20.56;68.92;100881.66;5070898;28;20571;-82
2022/05/18 04:17:07;;;;;;;8.80;6.80;;;;;;;20.53;68.88;100884.22;5077882;28;20024;-81
2022/05/18 04:19:33;;;;;;;8.02;7.15;;;;;;;20.54;69.02;100896.66;5067863;28;20028;-82
2022/05/18 04:21:58;;;;;;;8.05;7.15;;;;;;;20.53;68.98;100905.44;5084787;28;20024;-82
2022/05/18 04:24:24;;;;;;;7.25;6.55;;;;;;;20.56;68.92;100931.16;5079634;28;20056;-82
2022/05/18 04:26:50;;;;;;;8.52;7.45;;;;;;;20.49;69.16;100928.41;5081705;28;20498;-82
2022/05/18 04:29:15;;;;;;;7.88;6.45;;;;;;;20.54;69.04;100936.44;5070642;28;20064;-83
2022/05/18 04:31:41;;;;;;;8.15;7.07;;;;;;;20.51;69.04;100945.25;5082246;28;20042;-84
2022/05/18 04:34:07;;;;;;;7.40;6.70;;;;;;;20.52;68.96;100954.09;5090144;28;20024;-83
2022/05/18 04:36:33;;;;;;;7.70;6.53;;;;;;;20.51;69.00;100954.94;5072849;28;20030;-83
2022/05/18 04:38:59;;;;;;;7.13;6.43;;;;;;;20.49;69.09;100949.63;5073184;28;20044;-82
2022/05/18 04:41:24;;;;;;;7.60;6.80;;;;;;;20.56;69.22;100969.19;5091547;28;20103;-83
2022/05/18 04:43:50;;;;;;;7.53;6.80;;;;;;;20.54;69.22;100966.50;5073536;28;20454;-83
2022/05/18 04:46:16;;;;;;;8.02;6.60;;;;;;;20.46;69.40;100975.22;5072455;28;20511;-83
2022/05/18 04:48:42;;;;;;;8.00;7.07;;;;;;;20.49;69.45;100985.91;5091334;28;20039;-83
2022/05/18 04:51:07;;;;;;;;;;;;;;;20.51;69.21;101003.63;5073927;28;20031;-82
2022/05/18 04:53:34;;;;;;;7.57;6.75;;;;;;;20.44;69.57;100998.16;5091642;28;19998;-82
2022/05/18 04:56:00;;;;;;;7.68;6.80;;;;;;;20.52;69.30;101009.81;5073462;28;20028;-82
2022/05/18 04:58:25;;;;;;;7.80;7.07;;;;;;;20.51;69.57;101015.97;5075672;28;20024;-83
2022/05/18 05:00:58;;;;;;;7.80;6.53;;;;;;;20.52;69.66;101016.00;5095488;28;20039;-82
2022/05/18 05:03:24;;;;;;;7.70;6.90;;;;;;;20.42;69.50;101000.78;5095391;28;20024;-83
2022/05/18 05:05:50;;;;;;;7.10;6.40;;;;;;;20.45;69.46;101006.16;5093208;28;20024;-83
2022/05/18 05:08:15;;;;;;;7.50;6.43;;;;;;;20.54;69.38;101024.00;5095235;28;20086;-83
2022/05/18 05:10:41;;;;;;;7.65;6.72;;;;;;;20.45;69.53;101003.50;5095032;28;20040;-83
2022/05/18 05:13:07;;;;;;;8.52;6.80;;;;;;;20.50;69.45;101007.13;5077260;28;20032;-84
2022/05/18 05:15:32;;;;;;;8.93;6.57;;;;;;;20.53;69.29;101014.22;5093139;28;20489;-85
2022/05/18 05:17:58;;;;;;;8.00;6.38;;;;;;;20.57;69.38;101021.38;5075213;28;20475;-84
2022/05/18 05:20:24;;;;;;;7.63;6.38;;;;;;;20.49;69.24;101005.34;5094867;28;20556;-83
2022/05/18 05:22:50;;;;;;;8.55;6.68;;;;;;;20.37;69.63;100994.53;5094966;28;20450;-83
2022/05/18 05:25:15;;;;;;;6.93;6.20;;;;;;;20.41;69.69;101003.44;5073964;28;20027;-84
2022/05/18 05:27:42;;;;;;;7.88;6.30;;;;;;;20.49;69.67;101038.94;5094899;28;20070;-83
2022/05/18 05:30:08;;;;;;;7.43;6.63;;;;;;;20.45;70.00;101034.47;5076604;28;20035;-83
2022/05/18 05:32:35;;;;;;;7.32;6.63;;;;;;;20.46;69.96;101038.88;5094835;28;20028;-83
2022/05/18 05:35:00;;;;;;;;;;;;;;;20.49;70.00;101057.53;5092870;28;20055;-83
2022/05/18 05:37:26;;;;;;;6.40;5.80;;;;;;;20.42;69.95;101047.66;5076631;28;20385;-83
2022/05/18 05:39:52;;;;;;;7.10;6.28;;;;;;;20.47;69.81;101053.94;5076448;28;20471;-83
2022/05/18 05:42:17;;;;;;;7.05;6.30;;;;;;;20.38;69.75;101043.16;5076559;28;20111;-83
2022/05/18 05:44:43;;;;;;;6.57;5.97;;;;;;;20.18;69.38;101006.56;5074434;28;20031;-83
2022/05/18 05:47:11;;;;;;;7.07;6.15;;;;;;;20.50;69.62;101069.91;5070584;28;20524;-83
2022/05/18 05:49:42;;;;;;;6.63;5.93;;;;;;;20.39;69.59;101047.59;5094497;28;20484;-83
2022/05/18 05:52:08;;;;;;;7.07;5.97;;;;;;;20.47;69.83;101077.81;5072351;28;20071;-83
2022/05/18 05:54:34;;;;;;;6.97;6.32;;;;;;;20.26;69.71;101044.72;5087410;28;20012;-83
2022/05/18 05:57:03;;;;;;;6.88;5.85;;;;;;;20.40;69.63;101060.88;5055097;28;20032;-82
2022/05/18 05:59:30;;;;;;;6.90;6.20;;;;;;;20.51;69.80;101096.47;5072774;28;20029;-83
2022/05/18 06:01:59;;;;;;;7.13;5.68;;;;;;;20.50;69.69;101089.38;5089064;28;20519;-83
2022/05/18 06:04:25;;;;;;;9.50;5.57;;;;;;;20.49;69.70;101099.97;5095084;28;20031;-84
2022/05/18 06:06:50;;;;;;;10.70;6.53;;;;;;;20.46;70.27;101102.56;5075350;28;20089;-83
2022/05/18 06:09:16;;;;;;;8.77;6.43;;;;;;;20.36;70.07;101074.94;5094263;28;20067;-83
2022/05/18 06:11:42;;;;;;;9.32;6.22;;;;;;;20.46;69.91;101099.91;5090749;28;20562;-83
2022/05/18 06:14:07;;;;;;;8.27;6.10;;;;;;;20.32;70.30;101081.09;5094184;28;20454;-83
2022/05/18 06:16:33;;;;;;;10.30;6.07;;;;;;;20.42;70.28;101098.06;5057722;28;20040;-83
2022/05/18 06:18:59;;;;;;;6.55;5.80;;;;;;;20.42;70.00;101111.31;5073818;28;20037;-82
2022/05/18 06:21:26;;;;;;;7.43;5.95;;;;;;;20.52;69.86;101123.88;5085734;28;20032;-82
2022/05/18 06:23:51;;;;;;;8.38;5.80;;;;;;;20.44;70.03;101115.78;5081174;28;20025;-82
2022/05/18 06:26:17;;;;;;;7.07;6.03;;;;;;;20.49;70.00;101131.81;5057456;28;20035;-83
2022/05/18 06:28:43;;;;;;;7.72;5.75;;;;;;;20.47;70.03;101120.28;5098184;28;20571;-80
2022/05/18 06:31:09;;;;;;;6.90;6.18;;;;;;;20.47;69.96;101117.63;5077585;28;20416;-80
2022/05/18 06:33:35;;;;;;;7.45;6.00;;;;;;;20.47;70.26;101131.78;5107450;28;20098;-80
2022/05/18 06:36:01;;;;;;;6.50;5.90;;;;;;;20.50;69.99;101136.25;5114147;28;20091;-80
2022/05/18 06:38:27;;;;;;;;;;;;;;;20.52;70.09;101139.81;5114575;28;20097;-81
2022/05/18 06:43:38;;;;;;;6.43;5.68;;;;;;;20.38;70.03;101122.72;5104712;28;20078;-81
2022/05/18 06:46:04;;;;;;;7.32;5.88;;;;;;;20.48;70.41;101137.97;5104078;28;20076;-81
2022/05/18 06:48:29;;;;;;;7.18;5.72;;;;;;;20.48;69.76;101160.06;5106773;28;20508;-81
2022/05/18 06:50:55;;;;;;;8.50;6.35;;;;;;;20.47;70.05;101158.31;5072528;28;20473;-81
2022/05/18 06:53:21;;;;;;;7.50;6.60;;;;;;;20.54;69.55;101157.53;5073197;28;20028;-79
2022/05/18 06:55:47;;;;;;;8.63;6.28;;;;;;;20.42;70.21;101151.09;5055491;28;20081;-81
2022/05/18 06:58:13;;;;;;;7.68;6.32;;;;;;;20.32;70.84;101152.69;5073004;28;20640;-81
2022/05/18 07:00:39;;;;;;;7.03;6.13;;;;;;;20.45;70.46;101177.72;5073062;28;20038;-81
2022/05/18 07:03:05;;;;;;;8.63;6.55;;;;;;;20.44;70.61;101179.44;5107542;28;20421;-82
2022/05/18 07:05:31;;;;;;;8.40;6.38;;;;;;;20.44;70.61;101187.41;5106346;28;20028;-82
2022/05/18 07:07:57;;;;;;;8.07;6.05;;;;;;;20.39;70.21;101169.63;5093594;28;20035;-83
2022/05/18 07:10:26;;;;;;;7.18;6.22;;;;;;;20.40;70.43;101190.84;5092999;28;20047;-83
2022/05/18 07:12:52;;;;;;;8.45;6.28;;;;;;;20.45;70.13;101194.50;5092980;28;20580;-82
2022/05/18 07:15:18;;;;;;;6.68;6.03;;;;;;;20.50;70.14;101206.09;5093284;28;20060;-82
2022/05/18 07:17:44;;;;;;;7.88;6.40;;;;;;;20.46;70.01;101211.31;5071757;28;20696;-82
2022/05/18 07:20:10;;;;;;;6.30;5.70;;;;;;;20.44;69.76;101205.97;5054280;28;20036;-83
2022/05/18 07:22:36;;;;;;;6.72;5.78;;;;;;;20.23;70.06;101179.00;5079971;28;20475;-83
2022/05/18 07:25:01;;;;;;;6.03;5.43;;;;;;;20.35;69.66;101200.50;5092869;28;20112;-82
2022/05/18 07:27:28;;;;;;;6.32;5.60;;;;;;;20.34;69.55;101204.03;5074718;28;20420;-81
2022/05/18 07:29:54;;;;;;;6.85;5.75;;;;;;;20.27;69.42;101216.22;5092414;28;20039;-82
2022/05/18 07:32:19;;;;;;;6.45;5.13;;;;;;;20.27;69.90;101215.34;5092449;28;20020;-82
2022/05/18 07:34:45;;;;;;;8.70;5.05;;;;;;;20.10;70.04;101205.25;5092533;28;20063;-81
2022/05/18 07:37:12;;;;;;;5.03;4.53;;;;;;;20.24;69.43;101228.56;5055060;28;20036;-81
2022/05/18 07:39:38;;;;;;;5.50;5.00;;;;;;;20.23;69.15;101234.69;5073534;28;20032;-82
2022/05/18 07:42:05;;;;;;;8.85;4.82;;;;;;;20.26;69.03;101246.28;5073701;28;20032;-87
2022/05/18 07:44:31;;;;;;;5.03;4.22;;;;;;;20.20;69.14;101227.59;5057555;28;20037;-83
2022/05/18 07:46:57;;;;;;;;;;;;;;;20.22;69.05;101231.16;5099899;28;20415;-83
2022/05/18 07:49:23;;;;;;;6.55;4.22;;;;;;;20.01;69.24;101233.34;5085625;28;19916;-83
2022/05/18 07:51:48;;;;;;;6.20;3.70;;;;;;;20.01;69.18;101231.56;5071099;28;20115;-83
2022/05/18 07:54:14;;;;;;;7.10;3.55;;;;;;;19.92;68.85;101212.81;5089348;28;20035;-83
2022/05/18 07:56:48;;;;;;;6.53;3.83;;;;;;;19.78;68.90;101198.34;5090967;28;20027;-85
2022/05/18 07:59:25;;;;;;;4.85;3.85;;;;;;;20.18;68.75;101282.34;5068424;28;20054;-85
2022/05/18 08:01:51;;;;;;;5.38;3.50;;;;;;;20.07;68.74;101270.59;5081441;28;20035;-83
2022/05/18 08:04:17;;;;;;;5.05;3.10;;;;;;;20.09;68.79;101295.41;5100365;28;20016;-85
2022/05/18 08:06:46;;;;;;;7.68;4.07;;;;;;;20.13;68.69;101302.56;5074396;28;20032;-85
2022/05/18 08:09:12;;;;;;;3.80;3.40;;;;;;;20.19;68.45;101310.63;5111513;28;20027;-85
2022/05/18 08:17:10;;;;;;;5.10;2.55;;;;;;;20.03;67.99;101327.94;5081042;28;20127;-84
2022/05/18 08:19:35;;;;;;;3.17;2.22;;;;;;;20.08;67.80;101354.56;5075806;28;20500;-84
2022/05/18 08:22:01;;;;;;;4.45;2.30;;;;;;;19.87;67.43;101312.53;5111970;28;20024;-84
2022/05/18 08:24:26;;;;;;;4.45;1.98;;;;;;;20.08;67.84;101359.88;5093860;28;20058;-84
2022/05/18 08:26:52;;;;;;;4.95;2.60;;;;;;;20.10;67.54;101353.75;5112043;28;20107;-84
2022/05/18 08:29:18;;;;;;;3.60;2.20;;;;;;;20.02;67.84;101372.97;5111666;28;20031;-84
2022/05/18 08:31:43;;;;;;;3.78;2.15;;;;;;;20.06;67.71;101377.50;5063829;28;20063;-84
2022/05/18 08:34:09;;;;;;;4.28;2.08;;;;;;;19.88;67.57;101367.34;5093847;28;20024;-85
2022/05/18 08:36:35;;;;;;;3.88;2.22;;;;;;;19.79;67.70;101332.63;5093925;28;20028;-84
2022/05/18 08:39:00;;;;;;;7.78;2.58;;;;;;;19.58;68.29;101319.69;5076969;28;20114;-83
2022/05/18 08:41:30;;;;;;;3.75;1.90;;;;;;;19.98;67.21;101389.66;5093899;28;20070;-84
2022/05/18 08:43:59;;;;;;;2.67;2.03;;;;;;;19.84;67.42;101392.88;5093979;28;20408;-84
2022/05/18 08:46:39;;;;;;;3.55;2.33;;;;;;;19.98;66.87;101419.75;5108650;28;20028;-83
2022/05/18 08:49:40;;;;;;;3.05;2.00;;;;;;;19.61;67.02;101349.81;5083336;28;20122;-84
2022/05/18 08:52:12;;;;;;;2.85;2.00;;;;;;;19.98;66.67;101397.63;5056067;28;20131;-85
2022/05/18 08:54:59;;;;;;;4.43;1.92;;;;;;;19.96;66.74;101415.22;5053283;28;20037;-84
2022/05/18 08:57:34;;;;;;;4.15;1.92;;;;;;;19.68;66.72;101375.66;5071340;28;20032;-84
2022/05/18 09:00:11;;;;;;;3.90;1.80;;;;;;;19.84;66.89;101414.06;5053284;28;20017;-84
2022/05/18 09:02:39;;;;;;;4.30;2.17;;;;;;;19.75;66.42;101403.25;5057971;28;20028;-84
2022/05/18 09:05:11;;;;;;;5.10;1.67;;;;;;;19.90;66.31;101434.53;5072057;28;20089;-85
2022/05/18 09:07:45;;;;;;;3.35;1.70;;;;;;;19.73;66.50;101428.81;5076063;28;20031;-84
2022/05/18 09:10:34;;;;;;;3.67;1.98;;;;;;;19.72;66.06;101429.63;5067292;28;20078;-84
2022/05/18 09:13:01;;;;;;;2.97;1.70;;;;;;;19.87;66.05;101423.84;5089276;28;20560;-84
2022/05/18 09:15:52;;;;;;;7.38;1.85;;;;;;;19.85;65.89;101455.59;5073253;28;20074;-84
2022/05/18 09:18:42;;;;;;;4.13;1.55;;;;;;;19.91;65.65;101444.28;5096550;28;20028;-84
2022/05/18 09:21:16;;;;;;;4.70;1.90;;;;;;;19.81;65.81;101442.22;5089910;28;20032;-83
2022/05/18 09:23:51;;;;;;;4.50;2.20;;;;;;;19.81;65.58;101444.88;5089459;28;20104;-84
2022/05/18 09:26:26;;;;;;;3.47;2.20;;;;;;;19.78;65.76;101452.78;5092146;28;20474;-83
2022/05/18 09:29:04;;;;;;;5.63;2.15;;;;;;;19.69;65.54;101426.88;5089084;28;20020;-83
2022/05/18 09:31:39;;;;;;;5.90;2.15;;;;;;;19.71;65.40;101470.25;5059434;28;20036;-83
2022/05/18 09:34:42;;;;;;;4.65;1.88;;;;;;;19.73;65.43;101444.69;5089482;28;20024;-83
2022/05/18 09:37:13;;;;;;;3.97;2.10;;;;;;;19.61;65.53;101436.38;5091471;28;20526;-82
2022/05/18 09:39:43;;;;;;;3.35;2.00;;;;;;;19.64;64.79;101477.09;5090735;28;20032;-83
2022/05/18 09:42:14;;;;;;;5.88;2.03;;;;;;;19.69;64.97;101477.22;5070035;28;20033;-81
2022/05/18 09:44:59;;;;;;;5.13;1.90;;;;;;;19.70;65.22;101484.34;5092080;28;20055;-81
2022/05/18 09:47:27;;;;;;;3.65;1.90;;;;;;;19.71;65.33;101483.50;5076208;28;20386;-82
2022/05/18 09:50:00;;;;;;;5.60;2.20;;;;;;;19.73;64.65;101503.88;5073125;28;20036;-83
2022/05/18 09:52:29;;;;;;;7.97;2.67;;;;;;;19.75;64.82;101511.91;5101802;28;20481;-82
2022/05/18 09:55:00;;;;;;;6.75;2.40;;;;;;;19.58;65.62;101489.25;5112396;28;20023;-82
2022/05/18 09:57:31;;;;;;;4.25;1.88;;;;;;;19.68;65.16;101554.91;5081162;28;20114;-82
2022/05/18 10:00:01;;;;;;;4.55;2.20;;;;;;;19.70;65.19;101574.44;5080403;28;20457;-83
2022/05/18 10:08:13;;;;;;;7.05;2.63;;;;;;;19.76;64.95;101581.69;5097219;28;20034;-84
2022/05/18 10:10:40;;;;;;;4.43;2.10;;;;;;;19.32;65.21;101516.81;5095352;28;20082;-84
2022/05/18 10:13:09;;;;;;;6.80;2.00;;;;;;;19.78;65.07;101585.28;5085086;28;20032;-84
2022/05/18 10:15:43;;;;;;;3.67;1.80;;;;;;;19.81;65.11;101590.66;5076002;28;20023;-84
2022/05/18 10:18:41;;;;;;;4.53;1.92;;;;;;;19.78;65.26;101607.38;5075981;28;20111;-83
2022/05/18 10:21:09;;;;;;;3.85;1.90;;;;;;;19.73;65.44;101624.91;5068893;28;20062;-83
2022/05/18 10:23:36;;;;;;;5.20;2.15;;;;;;;19.81;65.05;101627.78;5088523;28;20024;-82
2022/05/18 10:26:03;;;;;;;4.65;2.00;;;;;;;19.78;65.51;101633.88;5070858;28;20020;-83
2022/05/18 10:28:32;;;;;;;5.40;2.08;;;;;;;19.75;65.35;101640.84;5055733;28;20459;-84
2022/05/18 10:31:01;;;;;;;7.78;2.05;;;;;;;19.67;65.60;101630.88;5093310;28;20016;-84
2022/05/18 10:33:39;;;;;;;4.38;1.88;;;;;;;19.62;65.14;101637.81;5074915;28;20032;-82
2022/05/18 10:36:29;;;;;;;3.45;1.75;;;;;;;19.64;64.93;101620.19;5073610;28;20031;-83
2022/05/18 10:38:57;;;;;;;5.82;1.80;;;;;;;19.48;65.25;101636.47;5070227;28;20039;-83
2022/05/18 10:41:28;;;;;;;4.63;1.80;;;;;;;19.44;64.63;101623.97;5094125;28;20026;-83
2022/05/18 10:43:54;;;;;;;4.85;1.85;;;;;;;19.57;64.54;101641.16;5074949;28;20097;-83
2022/05/18 10:46:27;;;;;;;9.55;2.63;;;;;;;19.46;65.01;101643.47;5092317;28;20028;-83
2022/05/18 10:49:23;;;;;;;7.50;2.00;;;;;;;19.50;64.52;101637.41;5090600;28;20035;-84
2022/05/18 10:51:49;;;;;;;6.97;1.90;;;;;;;19.30;64.20;101631.47;5090815;28;20028;-84
2022/05/18 10:54:25;;;;;;;6.45;2.15;;;;;;;19.37;64.28;101649.38;5074495;28;20075;-83
2022/05/18 10:56:51;;;;;;;8.48;1.95;;;;;;;19.46;63.37;101647.00;5074367;28;20077;-83
2022/05/18 10:59:29;;;;;;;7.63;1.90;;;;;;;19.49;63.94;101638.25;5083353;28;20097;-83
2022/05/18 11:02:03;;;;;;;6.55;2.22;;;;;;;19.48;64.49;101632.06;5093336;28;20028;-83
2022/05/18 11:04:41;;;;;;;4.90;1.98;;;;;;;19.31;64.26;101618.28;5072132;28;20060;-83
2022/05/18 11:07:07;;;;;;;4.63;1.65;;;;;;;19.41;64.39;101611.53;5105555;28;20027;-83
2022/05/18 11:09:33;;;;;;;5.60;1.80;;;;;;;19.38;63.67;101627.31;5075445;28;20055;-83
2022/05/18 11:12:27;;;;;;;6.43;1.85;;;;;;;19.34;63.75;101633.34;5073196;28;20048;-83
2022/05/18 11:14:55;;;;;;;8.77;2.10;;;;;;;19.36;63.66;101644.00;5090017;28;20493;-82
2022/05/18 11:17:38;;;;;;;9.95;2.33;;;;;;;19.35;63.47;101644.88;5090209;28;20035;-83
2022/05/18 11:20:16;;;;;;;5.18;2.38;;;;;;;19.25;63.21;101654.25;5090746;28;20024;-82
2022/05/18 11:22:53;;;;;;;10.77;2.28;;;;;;;19.27;63.32;101682.59;5091803;28;20035;-83
2022/05/18 11:25:37;;;;;;;10.50;2.17;;;;;;;19.36;63.37;101691.69;5070440;28;20401;-83
2022/05/18 11:28:08;;;;;;;7.10;1.67;;;;;;;19.39;63.10;101719.19;5083164;28;20043;-83
2022/05/18 11:30:40;;;;;;;4.13;1.95;;;;;;;19.46;63.14;101739.72;5098552;28;20114;-83
2022/05/18 11:33:08;;;;;;;6.72;2.20;;;;;;;19.43;63.39;101752.88;5107169;28;20039;-82
2022/05/18 11:35:58;;;;;;;5.22;2.20;;;;;;;19.37;63.45;101747.38;5087586;28;20025;-83
2022/05/18 11:38:29;;;;;;;4.97;1.80;;;;;;;19.47;63.64;101785.66;5100026;28;20080;-82
2022/05/18 11:41:20;;;;;;;8.23;2.20;;;;;;;19.48;63.71;101795.41;5097378;28;20032;-82
2022/05/18 11:44:11;;;;;;;6.95;1.77;;;;;;;19.41;63.81;101804.91;5075895;28;20036;-82
2022/05/18 11:46:39;;;;;;;5.70;2.10;;;;;;;19.43;63.65;101800.56;5058277;28;20032;-82
2022/05/18 11:49:19;;;;;;;4.65;2.05;;;;;;;19.39;64.00;101795.09;5092150;28;20549;-81